Time;durP1;ratioP1;P1;durP2;ratioP2;P2;SDS_P1;SDS_P2;PMS_P1;PMS_P2;Temp;Humidity;BMP_temperature;BMP_pressure;BME280_temperature;BME280_humidity;BME280_pressure;Samples;Min_cycle;Max_cycle;Signal;HPM_P1;HPM_P2
2022/11/16 00:00:25;;;;;;;15.90;10.77;;;8.80;99.90;;;;;;5074428;28;20428;-85
2022/11/16 00:02:50;;;;;;;19.57;10.33;;;8.80;99.90;;;;;;5062652;28;20202;-88
2022/11/16 00:05:17;;;;;;;17.03;10.60;;;8.80;99.90;;;;;;5033538;28;20175;-84
2022/11/16 00:07:43;;;;;;;17.87;11.00;;;8.80;99.90;;;;;;5032979;28;20183;-87
2022/11/16 00:10:10;;;;;;;16.43;10.50;;;8.70;99.90;;;;;;5015783;28;20426;-83
2022/11/16 00:12:36;;;;;;;16.13;10.77;;;8.60;99.90;;;;;;5033551;28;20414;-83
2022/11/16 00:15:03;;;;;;;18.00;10.83;;;8.60;99.90;;;;;;5038582;28;20416;-84
2022/11/16 00:17:28;;;;;;;16.20;10.30;;;8.50;99.90;;;;;;5035074;28;20514;-86
2022/11/16 00:19:54;;;;;;;15.60;10.73;;;8.50;99.90;;;;;;5053318;28;20612;-85
2022/11/16 00:22:19;;;;;;;16.90;10.50;;;8.50;99.90;;;;;;5053009;28;20182;-84
2022/11/16 00:24:45;;;;;;;16.93;11.07;;;8.50;99.90;;;;;;5053296;28;20660;-87
2022/11/16 00:27:11;;;;;;;23.33;12.77;;;8.50;99.90;;;;;;5051661;28;20652;-86
2022/11/16 00:29:36;;;;;;;21.27;10.90;;;8.40;99.90;;;;;;5053199;28;20539;-85
2022/11/16 00:32:02;;;;;;;21.50;14.20;;;8.40;99.90;;;;;;5052321;28;20268;-87
2022/11/16 00:34:27;;;;;;;18.30;11.17;;;8.30;99.90;;;;;;5052719;28;20585;-85
2022/11/16 00:36:53;;;;;;;23.10;11.90;;;8.30;99.90;;;;;;5052548;28;20177;-87
2022/11/16 00:39:19;;;;;;;21.00;12.20;;;8.30;99.90;;;;;;5052509;28;20290;-85
2022/11/16 00:41:46;;;;;;;22.03;11.40;;;8.30;99.90;;;;;;5051313;28;20267;-86
2022/11/16 00:44:11;;;;;;;18.77;11.00;;;8.30;99.90;;;;;;5052627;28;20427;-86
2022/11/16 00:46:38;;;;;;;19.93;11.27;;;8.30;99.90;;;;;;5052247;28;20452;-85
2022/11/16 00:49:04;;;;;;;21.13;11.67;;;8.30;99.90;;;;;;5052505;28;20176;-86
2022/11/16 00:51:30;;;;;;;18.30;10.53;;;8.30;99.90;;;;;;5051546;28;20412;-85
2022/11/16 00:53:56;;;;;;;22.43;11.83;;;8.20;99.90;;;;;;5034394;28;20907;-86
2022/11/16 00:56:22;;;;;;;20.50;11.90;;;8.20;99.90;;;;;;5052044;28;20427;-85
2022/11/16 00:58:48;;;;;;;17.40;11.60;;;8.20;99.90;;;;;;5051304;28;20211;-85
2022/11/16 01:01:14;;;;;;;21.17;12.17;;;8.20;99.90;;;;;;5052000;28;20461;-86
2022/11/16 01:03:39;;;;;;;18.23;11.20;;;8.20;99.90;;;;;;5051936;28;20453;-85
2022/11/16 01:06:08;;;;;;;21.20;12.23;;;8.20;99.90;;;;;;5034096;28;20184;-86
2022/11/16 01:08:35;;;;;;;18.37;12.90;;;8.20;99.90;;;;;;5051633;28;20174;-86
2022/11/16 01:13:46;;;;;;;13.67;9.40;;;8.20;99.90;;;;;;5051960;28;20940;-84
2022/11/16 01:16:16;;;;;;;22.07;11.90;;;8.20;99.90;;;;;;5051853;28;20408;-86
2022/11/16 01:18:43;;;;;;;18.17;11.93;;;8.10;99.90;;;;;;5033712;28;20478;-85
2022/11/16 01:21:08;;;;;;;19.27;11.90;;;8.10;99.90;;;;;;5050511;28;20506;-84
2022/11/16 01:23:34;;;;;;;24.37;12.40;;;8.10;99.90;;;;;;5033753;28;20504;-86
2022/11/16 01:26:02;;;;;;;14.30;9.80;;;8.10;99.90;;;;;;5052081;28;20257;-87
2022/11/16 01:28:29;;;;;;;21.00;10.93;;;8.10;99.90;;;;;;5052303;28;20533;-86
2022/11/16 01:30:55;;;;;;;18.80;9.90;;;8.00;99.90;;;;;;5052102;28;20434;-85
2022/11/16 01:33:20;;;;;;;20.87;12.60;;;8.00;99.90;;;;;;5051973;28;20423;-84
2022/11/16 01:35:46;;;;;;;18.57;12.07;;;8.00;99.90;;;;;;5052020;28;20280;-85
2022/11/16 01:38:11;;;;;;;23.10;12.70;;;8.00;99.90;;;;;;5051597;28;20205;-85
2022/11/16 01:40:37;;;;;;;19.63;13.83;;;8.00;99.90;;;;;;5034570;28;20322;-88
2022/11/16 01:43:10;;;;;;;22.30;12.20;;;7.90;99.90;;;;;;5051926;28;20179;-86
2022/11/16 01:45:42;;;;;;;18.70;12.37;;;8.00;99.90;;;;;;5051646;28;20247;-87
2022/11/16 01:48:11;;;;;;;22.03;12.37;;;7.90;99.90;;;;;;5052041;28;20404;-86
2022/11/16 01:50:37;;;;;;;19.33;13.33;;;7.80;99.90;;;;;;5052054;28;20429;-85
2022/11/16 01:53:05;;;;;;;18.87;12.47;;;7.80;99.90;;;;;;5051227;28;20449;-85
2022/11/16 01:55:32;;;;;;;17.33;10.50;;;7.80;99.90;;;;;;5051978;28;20882;-87
2022/11/16 01:57:59;;;;;;;17.43;9.87;;;7.70;99.90;;;;;;5052129;28;20407;-86
2022/11/16 02:00:25;;;;;;;24.50;12.50;;;7.80;99.90;;;;;;5051983;28;20431;-86
2022/11/16 02:02:50;;;;;;;20.20;12.77;;;7.70;99.90;;;;;;5051756;28;20415;-88
2022/11/16 02:05:20;;;;;;;21.70;12.00;;;7.70;99.90;;;;;;5051807;28;20510;-87
2022/11/16 02:11:06;;;;;;;22.80;10.37;;;7.70;99.90;;;;;;5052014;28;20406;-87
2022/11/16 02:13:44;;;;;;;23.37;13.07;;;7.70;99.90;;;;;;5051851;28;20403;-86
2022/11/16 02:16:28;;;;;;;21.30;10.10;;;7.70;99.90;;;;;;5051603;28;20431;-85
2022/11/16 02:19:03;;;;;;;22.47;11.97;;;7.70;99.90;;;;;;5034132;28;20529;-86
2022/11/16 02:21:50;;;;;;;22.13;13.20;;;7.70;99.90;;;;;;5051351;28;20409;-87
2022/11/16 02:24:35;;;;;;;22.63;12.97;;;7.70;99.90;;;;;;5051487;28;20411;-84
2022/11/16 02:27:03;;;;;;;23.90;11.83;;;7.70;99.90;;;;;;5051977;28;20419;-88
2022/11/16 02:29:32;;;;;;;19.33;10.40;;;7.70;99.90;;;;;;5051912;28;20417;-87
2022/11/16 02:32:16;;;;;;;25.10;14.90;;;7.60;99.90;;;;;;5052014;28;20473;-88
2022/11/16 02:34:47;;;;;;;22.30;11.80;;;7.60;99.90;;;;;;5051606;28;20421;-87
2022/11/16 02:37:17;;;;;;;24.67;14.63;;;7.60;99.90;;;;;;5051721;28;20936;-88
2022/11/16 02:39:46;;;;;;;23.03;11.97;;;7.60;99.90;;;;;;5051638;28;20474;-88
2022/11/16 02:42:20;;;;;;;21.67;13.47;;;7.60;99.90;;;;;;5052218;28;20414;-88
2022/11/16 02:44:48;;;;;;;27.53;15.13;;;7.60;99.90;;;;;;5051862;28;20426;-88
2022/11/16 02:47:28;;;;;;;20.90;12.23;;;7.60;99.90;;;;;;5034270;28;20523;-88
2022/11/16 02:49:58;;;;;;;21.23;12.33;;;7.70;99.90;;;;;;5034153;28;20427;-89
2022/11/16 02:52:27;;;;;;;24.40;12.50;;;7.70;99.90;;;;;;5052078;28;20550;-87
2022/11/16 02:54:52;;;;;;;29.27;15.40;;;7.70;99.90;;;;;;5034227;28;20435;-88
2022/11/16 02:57:32;;;;;;;22.80;12.40;;;7.70;99.90;;;;;;5055800;28;20749;-84
2022/11/16 02:59:59;;;;;;;20.47;12.37;;;7.70;99.90;;;;;;5055455;28;20208;-88
2022/11/16 03:02:46;;;;;;;25.70;12.73;;;7.70;99.90;;;;;;5055726;28;20502;-85
2022/11/16 03:05:30;;;;;;;26.87;14.17;;;7.70;99.90;;;;;;5055683;28;20468;-85
2022/11/16 03:08:07;;;;;;;25.87;14.37;;;7.60;99.90;;;;;;5055285;28;20409;-83
2022/11/16 03:13:29;;;;;;;21.37;12.20;;;7.60;99.90;;;;;;5055574;28;20413;-86
2022/11/16 03:15:55;;;;;;;23.57;12.33;;;7.50;99.90;;;;;;5055508;28;20414;-84
2022/11/16 03:18:23;;;;;;;25.73;14.90;;;7.50;99.90;;;;;;5055345;28;20856;-85
2022/11/16 03:20:51;;;;;;;24.07;13.47;;;7.50;99.90;;;;;;5054947;28;20744;-85
2022/11/16 03:23:17;;;;;;;26.03;14.00;;;7.60;99.90;;;;;;5055398;28;20507;-86
2022/11/16 03:25:51;;;;;;;25.50;14.63;;;7.60;99.90;;;;;;5055252;28;20856;-84
2022/11/16 03:28:41;;;;;;;23.43;14.20;;;7.60;99.90;;;;;;5055295;28;20164;-84
2022/11/16 03:31:17;;;;;;;23.53;15.10;;;7.60;99.90;;;;;;5055273;28;20420;-85
2022/11/16 03:33:47;;;;;;;23.90;14.67;;;7.60;99.90;;;;;;5055407;28;20453;-84
2022/11/16 03:36:25;;;;;;;26.70;12.63;;;7.50;99.90;;;;;;5036953;28;20855;-85
2022/11/16 03:38:51;;;;;;;24.63;11.87;;;7.50;99.90;;;;;;5057975;28;20464;-84
2022/11/16 03:41:20;;;;;;;27.43;13.40;;;7.50;99.90;;;;;;5066394;28;20446;-84
2022/11/16 03:43:48;;;;;;;22.50;13.53;;;7.50;99.90;;;;;;5064253;28;20410;-84
2022/11/16 03:46:15;;;;;;;22.27;14.53;;;7.50;99.90;;;;;;5065897;28;20463;-86
2022/11/16 03:48:41;;;;;;;27.47;13.53;;;7.50;99.90;;;;;;5059895;28;20408;-85
2022/11/16 03:51:09;;;;;;;26.07;14.17;;;7.50;99.90;;;;;;5054711;28;20769;-84
2022/11/16 03:53:34;;;;;;;26.67;14.30;;;7.50;99.90;;;;;;5054819;28;20458;-84
2022/11/16 03:56:00;;;;;;;25.20;13.13;;;7.50;99.90;;;;;;5054840;28;20450;-84
2022/11/16 03:58:26;;;;;;;22.77;12.97;;;7.50;99.90;;;;;;5054596;28;20241;-85
2022/11/16 04:00:52;;;;;;;29.40;15.07;;;7.50;99.90;;;;;;5054621;28;20172;-84
2022/11/16 04:03:17;;;;;;;22.00;13.37;;;7.50;99.90;;;;;;5054578;28;20193;-84
2022/11/16 04:25:31;;;;;;;27.77;14.10;;;7.40;99.90;;;;;;5054246;28;20962;-83
2022/11/16 04:28:12;;;;;;;22.93;12.37;;;7.40;99.90;;;;;;5033287;28;20454;-84
2022/11/16 04:38:53;;;;;;;22.40;12.80;;;7.30;99.90;;;;;;5053871;28;20462;-84
2022/11/16 04:44:02;;;;;;;27.07;13.97;;;7.30;99.90;;;;;;5053856;28;20222;-84
2022/11/16 04:49:12;;;;;;;19.57;12.27;;;7.20;99.90;;;;;;5054033;28;20193;-85
2022/11/16 04:51:37;;;;;;;25.93;13.10;;;7.30;99.90;;;;;;5053358;28;20430;-84
2022/11/16 04:54:03;;;;;;;20.00;10.83;;;7.40;99.90;;;;;;5053597;28;20176;-84
2022/11/16 04:56:28;;;;;;;26.27;14.30;;;7.30;99.90;;;;;;5053613;28;20198;-84
2022/11/16 04:58:54;;;;;;;22.03;13.97;;;7.40;99.90;;;;;;5053490;28;20209;-84
2022/11/16 05:02:06;;;;;;;20.30;12.60;;;7.30;99.90;;;;;;5053535;28;20256;-83
2022/11/16 05:04:05;;;;;;;18.80;11.37;;;7.30;99.90;;;;;;5053309;28;20578;-84
2022/11/16 05:06:30;;;;;;;21.33;12.33;;;7.30;99.90;;;;;;5053080;28;20505;-84
2022/11/16 05:08:56;;;;;;;19.57;11.57;;;7.20;99.90;;;;;;5053435;28;20184;-84
2022/11/16 05:11:21;;;;;;;28.80;14.13;;;7.20;99.90;;;;;;5053316;28;20188;-83
2022/11/16 05:13:47;;;;;;;21.73;11.10;;;7.20;99.90;;;;;;5053234;28;20230;-84
2022/11/16 05:16:12;;;;;;;17.27;11.83;;;7.20;99.90;;;;;;5035429;28;20169;-83
2022/11/16 05:18:38;;;;;;;24.30;12.90;;;7.20;99.90;;;;;;5052288;28;20234;-83
2022/11/16 05:21:03;;;;;;;21.47;11.63;;;7.30;99.90;;;;;;5052785;28;20180;-84
2022/11/16 05:26:13;;;;;;;23.77;12.20;;;7.30;99.90;;;;;;5053184;28;20182;-83
2022/11/16 05:28:38;;;;;;;22.23;11.50;;;7.20;99.90;;;;;;5053089;28;20510;-83
2022/11/16 05:31:04;;;;;;;17.43;11.00;;;7.20;99.90;;;;;;5035151;28;20695;-84
2022/11/16 05:33:30;;;;;;;22.33;12.07;;;7.10;99.90;;;;;;5052983;28;20205;-85
2022/11/16 05:35:55;;;;;;;19.17;11.80;;;7.10;99.90;;;;;;5052726;28;20199;-84
2022/11/16 05:38:21;;;;;;;24.70;11.57;;;7.10;99.90;;;;;;5052887;28;20640;-84
2022/11/16 05:40:46;;;;;;;20.97;11.10;;;7.00;99.90;;;;;;5053022;28;20251;-84
2022/11/16 05:43:11;;;;;;;25.20;14.33;;;7.10;99.90;;;;;;5052812;28;20174;-85
2022/11/16 05:45:37;;;;;;;23.17;14.20;;;7.00;99.90;;;;;;5052661;28;20258;-86
2022/11/16 05:48:03;;;;;;;23.10;12.03;;;7.00;99.90;;;;;;5053109;28;20177;-85
2022/11/16 05:50:28;;;;;;;20.33;12.13;;;7.00;99.90;;;;;;5034855;28;20382;-85
2022/11/16 05:52:53;;;;;;;22.17;10.50;;;7.00;99.90;;;;;;5053074;28;20184;-84
2022/11/16 05:55:19;;;;;;;23.77;12.23;;;7.00;99.90;;;;;;5052775;28;20176;-85
2022/11/16 05:57:44;;;;;;;22.73;11.27;;;6.90;99.90;;;;;;5052823;28;20181;-84
2022/11/16 06:00:12;;;;;;;19.37;11.37;;;6.90;99.90;;;;;;5052798;28;20663;-85
2022/11/16 06:02:37;;;;;;;21.43;11.53;;;6.90;99.90;;;;;;5052641;28;20631;-85
2022/11/16 06:05:03;;;;;;;20.47;12.00;;;6.90;99.90;;;;;;5052631;28;20428;-84
2022/11/16 06:07:28;;;;;;;20.03;11.03;;;7.00;99.90;;;;;;5052222;28;20177;-85
2022/11/16 06:09:54;;;;;;;21.20;11.93;;;6.90;99.90;;;;;;5052638;28;20181;-85
2022/11/16 06:12:19;;;;;;;24.13;11.30;;;6.90;99.90;;;;;;5052349;28;20177;-83
2022/11/16 06:14:45;;;;;;;21.43;11.33;;;6.90;99.90;;;;;;5052496;28;20170;-85
2022/11/16 06:17:13;;;;;;;19.90;11.17;;;6.90;99.90;;;;;;5052687;28;20226;-83
2022/11/16 06:19:39;;;;;;;22.33;12.40;;;6.90;99.90;;;;;;5052441;28;20298;-83
2022/11/16 06:22:05;;;;;;;21.70;10.57;;;6.90;99.90;;;;;;5033298;28;20447;-83
2022/11/16 06:24:30;;;;;;;21.17;12.23;;;6.90;99.90;;;;;;5051341;28;20507;-85
2022/11/16 06:26:56;;;;;;;22.30;10.83;;;6.90;99.90;;;;;;5053618;28;20407;-87
2022/11/16 06:29:22;;;;;;;19.13;10.13;;;6.90;99.90;;;;;;5035774;28;20176;-86
2022/11/16 06:31:47;;;;;;;13.90;8.50;;;6.90;99.90;;;;;;5056393;28;20177;-85
2022/11/16 06:34:13;;;;;;;19.10;11.57;;;6.90;99.90;;;;;;5055757;28;20169;-83
2022/11/16 06:36:39;;;;;;;21.50;11.30;;;6.80;99.90;;;;;;5055562;28;20686;-82
2022/11/16 06:39:05;;;;;;;25.90;12.10;;;6.80;99.90;;;;;;5055787;28;20291;-84
2022/11/16 06:41:31;;;;;;;23.90;12.50;;;6.80;99.90;;;;;;5037436;28;20669;-84
2022/11/16 06:43:57;;;;;;;21.87;11.97;;;6.80;99.90;;;;;;5055746;28;20599;-85
2022/11/16 06:46:23;;;;;;;21.53;14.03;;;6.90;99.90;;;;;;5055857;28;20539;-85
2022/11/16 06:48:49;;;;;;;23.60;12.93;;;6.90;99.90;;;;;;5054873;28;20538;-85
2022/11/16 06:51:14;;;;;;;21.67;11.43;;;6.90;99.90;;;;;;5055602;28;20414;-84
2022/11/16 06:53:40;;;;;;;24.67;12.40;;;6.90;99.90;;;;;;5055898;28;20179;-85
2022/11/16 06:56:06;;;;;;;24.20;13.00;;;6.90;99.90;;;;;;5038028;28;20177;-85
2022/11/16 06:58:32;;;;;;;23.40;12.67;;;6.90;99.90;;;;;;5038004;28;20294;-85
2022/11/16 07:01:05;;;;;;;23.23;11.20;;;6.90;99.90;;;;;;5055594;28;20455;-85
2022/11/16 07:03:31;;;;;;;22.40;12.23;;;6.90;99.90;;;;;;5037908;28;20428;-85
2022/11/16 07:05:56;;;;;;;25.97;12.77;;;7.00;99.90;;;;;;5037328;28;20429;-86
2022/11/16 07:08:22;;;;;;;28.83;14.20;;;7.00;99.90;;;;;;5055680;28;20212;-84
2022/11/16 07:10:47;;;;;;;21.50;13.80;;;7.00;99.90;;;;;;5055582;28;20213;-85
2022/11/16 07:13:13;;;;;;;29.37;12.83;;;7.00;99.90;;;;;;5037596;28;20175;-85
2022/11/16 07:15:38;;;;;;;23.10;13.13;;;7.00;99.90;;;;;;5037839;28;20264;-85
2022/11/16 07:18:05;;;;;;;24.60;13.03;;;7.00;99.90;;;;;;5055571;28;20169;-85
2022/11/16 07:20:31;;;;;;;23.23;13.40;;;7.00;99.90;;;;;;5055128;28;20202;-86
2022/11/16 07:23:01;;;;;;;25.10;12.60;;;7.10;99.90;;;;;;5055486;28;20928;-85
2022/11/16 07:25:27;;;;;;;20.07;12.47;;;7.00;99.90;;;;;;5055660;28;20406;-86
2022/11/16 07:27:52;;;;;;;24.67;13.17;;;7.10;99.90;;;;;;5055711;28;20420;-86
2022/11/16 07:30:18;;;;;;;23.73;13.17;;;7.10;99.90;;;;;;5055305;28;20532;-86
2022/11/16 07:32:43;;;;;;;25.17;13.00;;;7.10;99.90;;;;;;5055542;28;20176;-87
2022/11/16 07:35:09;;;;;;;23.63;12.90;;;7.10;99.90;;;;;;5055158;28;20168;-86
2022/11/16 07:37:35;;;;;;;28.03;14.33;;;7.10;99.90;;;;;;5055518;28;20648;-86
2022/11/16 07:40:00;;;;;;;23.67;12.97;;;7.10;99.90;;;;;;5055278;28;20714;-86
2022/11/16 07:42:26;;;;;;;21.20;13.83;;;7.10;99.90;;;;;;5054384;28;20167;-87
2022/11/16 07:44:51;;;;;;;25.83;13.00;;;7.10;99.90;;;;;;5055551;28;20217;-86
2022/11/16 07:47:17;;;;;;;18.73;11.60;;;7.10;99.90;;;;;;5055242;28;20564;-84
2022/11/16 07:49:42;;;;;;;23.23;12.83;;;7.10;99.90;;;;;;5055125;28;20180;-86
2022/11/16 07:52:09;;;;;;;23.20;13.90;;;7.20;99.90;;;;;;5054744;28;20163;-86
2022/11/16 07:54:35;;;;;;;23.23;14.07;;;7.20;99.90;;;;;;5054910;28;20656;-83
2022/11/16 07:57:00;;;;;;;27.33;13.27;;;7.20;99.90;;;;;;5055148;28;20471;-86
2022/11/16 07:59:27;;;;;;;26.40;13.33;;;7.20;99.90;;;;;;5054867;28;20617;-83
2022/11/16 08:01:54;;;;;;;22.27;14.27;;;7.20;99.90;;;;;;5036889;28;20162;-85
2022/11/16 08:04:19;;;;;;;21.90;14.80;;;7.20;99.90;;;;;;5054899;28;20424;-83
2022/11/16 08:06:54;;;;;;;27.47;15.93;;;7.20;99.90;;;;;;5036733;28;20422;-86
2022/11/16 08:09:19;;;;;;;25.40;13.60;;;7.20;99.90;;;;;;5054770;28;20173;-85
2022/11/16 08:11:46;;;;;;;24.67;15.50;;;7.10;99.90;;;;;;5054645;28;20415;-86
2022/11/16 08:14:11;;;;;;;26.97;15.43;;;7.20;99.90;;;;;;5036726;28;20644;-86
2022/11/16 08:16:37;;;;;;;24.43;13.03;;;7.10;99.90;;;;;;5054701;28;20428;-90
2022/11/16 08:19:03;;;;;;;25.27;12.63;;;7.10;99.90;;;;;;5054668;28;20294;-85
2022/11/16 08:21:29;;;;;;;24.53;13.80;;;7.10;99.90;;;;;;5054048;28;20163;-86
2022/11/16 08:23:54;;;;;;;24.73;13.30;;;7.10;99.90;;;;;;5054579;28;20425;-85
2022/11/16 08:26:21;;;;;;;23.97;13.33;;;7.10;99.90;;;;;;5054658;28;20644;-86
2022/11/16 08:28:50;;;;;;;32.37;14.80;;;7.10;99.90;;;;;;5054277;28;20176;-85
2022/11/16 08:31:18;;;;;;;25.27;12.27;;;7.20;99.90;;;;;;5054279;28;20422;-86
2022/11/16 08:33:44;;;;;;;20.30;13.03;;;7.20;99.90;;;;;;5054227;28;20420;-83
2022/11/16 08:36:15;;;;;;;26.20;14.40;;;7.20;99.90;;;;;;5056219;28;20438;-90
2022/11/16 08:38:45;;;;;;;28.83;14.30;;;7.10;99.90;;;;;;5054015;28;20218;-86
2022/11/16 08:41:11;;;;;;;26.70;13.77;;;7.10;99.90;;;;;;5054250;28;20422;-84
2022/11/16 08:43:38;;;;;;;22.03;13.20;;;7.10;99.90;;;;;;5054073;28;20403;-86
2022/11/16 08:46:04;;;;;;;27.47;13.50;;;7.10;99.90;;;;;;5053767;28;20802;-87
2022/11/16 08:48:30;;;;;;;25.83;13.83;;;7.10;99.90;;;;;;5053862;28;20409;-85
2022/11/16 08:51:02;;;;;;;27.13;12.57;;;7.10;99.90;;;;;;5053568;28;20433;-85
2022/11/16 08:53:28;;;;;;;23.30;13.70;;;7.10;99.90;;;;;;5054051;28;20648;-85
2022/11/16 08:55:53;;;;;;;30.17;14.37;;;7.10;99.90;;;;;;5053966;28;20418;-89
2022/11/16 08:58:19;;;;;;;25.73;14.17;;;7.00;99.90;;;;;;5054030;28;20179;-83
2022/11/16 09:00:44;;;;;;;30.07;12.97;;;7.00;99.90;;;;;;5060268;28;20257;-89
2022/11/16 09:03:10;;;;;;;29.23;13.50;;;7.00;99.90;;;;;;5072596;28;20180;-85
2022/11/16 09:05:37;;;;;;;32.47;14.70;;;7.00;99.90;;;;;;5065474;28;20228;-86
2022/11/16 09:08:04;;;;;;;26.30;13.77;;;7.10;99.90;;;;;;5068344;28;20636;-83
2022/11/16 09:10:30;;;;;;;24.10;11.90;;;7.00;99.90;;;;;;5067187;28;20470;-87
2022/11/16 09:12:55;;;;;;;23.70;13.70;;;7.00;99.90;;;;;;5053833;28;20817;-84
2022/11/16 09:15:21;;;;;;;31.23;14.40;;;7.00;99.90;;;;;;5053851;28;20174;-90
2022/11/16 09:17:46;;;;;;;25.70;13.53;;;7.00;99.90;;;;;;5053551;28;20532;-84
2022/11/16 09:20:12;;;;;;;29.73;14.17;;;7.00;99.90;;;;;;5035140;28;20212;-84
2022/11/16 09:22:41;;;;;;;27.20;14.93;;;7.00;99.90;;;;;;5053093;28;20179;-83
2022/11/16 09:25:10;;;;;;;23.47;13.03;;;6.90;99.90;;;;;;5053305;28;20179;-83
2022/11/16 09:27:36;;;;;;;26.07;14.27;;;7.00;99.90;;;;;;5053231;28;20410;-86
2022/11/16 09:30:02;;;;;;;27.43;14.07;;;7.00;99.90;;;;;;5053207;28;20413;-84
2022/11/16 09:32:28;;;;;;;26.73;13.63;;;7.00;99.90;;;;;;5053271;28;20419;-85
2022/11/16 09:34:53;;;;;;;32.40;14.73;;;7.00;99.90;;;;;;5052832;28;20786;-85
2022/11/16 09:37:19;;;;;;;19.40;11.73;;;7.00;99.90;;;;;;5053063;28;20179;-86
2022/11/16 09:39:44;;;;;;;26.37;13.50;;;7.00;99.90;;;;;;5053130;28;20618;-86
2022/11/16 09:42:25;;;;;;;24.33;13.03;;;7.00;99.90;;;;;;5053060;28;20544;-85
2022/11/16 09:45:06;;;;;;;25.60;12.70;;;7.00;99.90;;;;;;5053296;28;20252;-86
2022/11/16 09:47:39;;;;;;;26.40;13.53;;;;;;;;;;5052936;28;20508;-85
2022/11/16 09:50:06;;;;;;;30.60;14.97;;;;;;;;;;5052978;28;20412;-85
2022/11/16 09:52:35;;;;;;;31.53;15.60;;;;;;;;;;5052885;28;20415;-84
2022/11/16 09:55:10;;;;;;;25.03;14.03;;;;;;;;;;5053020;28;20496;-87
2022/11/16 09:57:37;;;;;;;24.50;14.97;;;;;;;;;;5053691;28;20413;-86
2022/11/16 10:00:08;;;;;;;27.87;14.27;;;;;;;;;;5052924;28;21004;-85
2022/11/16 10:02:40;;;;;;;25.53;14.43;;;;;;;;;;5053065;28;20508;-85
2022/11/16 10:05:21;;;;;;;26.87;13.97;;;;;;;;;;5053758;28;20413;-83
2022/11/16 10:07:52;;;;;;;21.50;11.93;;;;;;;;;;5056966;28;20422;-84
2022/11/16 10:10:23;;;;;;;29.83;13.10;;;;;;;;;;5056846;28;20413;-84
2022/11/16 10:13:00;;;;;;;25.83;14.33;;;;;;;;;;5056677;28;20411;-85
2022/11/16 10:15:38;;;;;;;22.50;12.20;;;;;;;;;;5056724;28;20411;-85
2022/11/16 10:18:08;;;;;;;27.03;13.50;;;;;;;;;;5056615;28;20503;-85
2022/11/16 10:20:51;;;;;;;32.20;15.87;;;;;;;;;;5056212;28;21035;-84
2022/11/16 10:23:37;;;;;;;31.90;15.33;;;;;;;;;;5057355;28;20408;-85
2022/11/16 10:26:22;;;;;;;34.73;16.27;;;;;;;;;;5056497;28;20398;-86
2022/11/16 10:28:56;;;;;;;29.50;15.30;;;;;;;;;;5056292;28;20431;-83
2022/11/16 10:31:45;;;;;;;26.07;14.40;;;;;;;;;;5056380;28;20490;-84
2022/11/16 10:34:17;;;;;;;34.90;16.10;;;;;;;;;;5048364;28;20840;-84
2022/11/16 10:36:43;;;;;;;35.10;15.27;;;;;;;;;;5055936;28;20415;-83
2022/11/16 10:39:12;;;;;;;35.50;14.93;;;;;;;;;;5056309;28;20946;-83
2022/11/16 10:41:40;;;;;;;24.33;14.27;;;;;;;;;;5056198;28;21011;-86
2022/11/16 10:44:13;;;;;;;30.80;16.47;;;;;;;;;;5056093;28;20434;-83
2022/11/16 10:46:44;;;;;;;29.20;13.70;;;;;;;;;;5055926;28;20455;-84
2022/11/16 10:49:22;;;;;;;27.50;13.40;;;;;;;;;;5056549;28;20513;-88
2022/11/16 10:51:48;;;;;;;32.07;15.00;;;;;;;;;;5059109;28;20412;-89
2022/11/16 10:54:15;;;;;;;34.53;15.40;;;;;;;;;;5056289;28;20760;-84
2022/11/16 10:56:44;;;;;;;31.87;16.40;;;;;;;;;;5055736;28;20415;-86
2022/11/16 10:59:11;;;;;;;36.37;17.60;;;;;;;;;;5055877;28;20479;-87
2022/11/16 11:01:38;;;;;;;31.93;13.90;;;;;;;;;;5055881;28;20418;-86
2022/11/16 11:04:15;;;;;;;32.17;16.50;;;;;;;;;;5055921;28;21094;-85
2022/11/16 11:06:41;;;;;;;28.73;15.17;;;;;;;;;;5055819;28;20402;-85
2022/11/16 11:09:14;;;;;;;44.90;18.60;;;;;;;;;;5047137;28;20424;-85
2022/11/16 11:14:25;;;;;;;30.23;16.37;;;;;;;;;;5054705;28;20969;-86
2022/11/16 11:16:54;;;;;;;33.33;14.47;;;;;;;;;;5054686;28;20406;-88
2022/11/16 11:19:24;;;;;;;32.67;16.10;;;;;;;;;;5036895;28;20476;-86
2022/11/16 11:21:55;;;;;;;37.30;16.43;;;;;;;;;;5053737;28;20728;-85
2022/11/16 11:24:21;;;;;;;36.87;15.43;;;;;;;;;;5054621;28;20428;-87
2022/11/16 11:26:59;;;;;;;35.90;16.00;;;;;;;;;;5036509;28;20481;-85
2022/11/16 11:29:34;;;;;;;31.10;15.57;;;;;;;;;;5054551;28;20810;-86
2022/11/16 11:32:04;;;;;;;40.50;16.03;;;;;;;;;;5055239;28;20407;-87
2022/11/16 11:34:31;;;;;;;30.07;16.27;;;;;;;;;;5036279;28;20404;-86
2022/11/16 11:36:59;;;;;;;31.90;16.43;;;;;;;;;;5059086;28;20853;-85
2022/11/16 11:39:29;;;;;;;38.97;16.90;;;;;;;;;;5054247;28;20863;-84
2022/11/16 11:42:06;;;;;;;32.87;14.30;;;;;;;;;;5054398;28;20479;-84
2022/11/16 11:44:51;;;;;;;36.80;16.77;;;;;;;;;;5054131;28;20490;-83
2022/11/16 11:47:17;;;;;;;32.57;16.97;;;;;;;;;;5053955;28;20874;-84
2022/11/16 11:49:48;;;;;;;40.47;17.03;;;;;;;;;;5053798;28;20410;-84
2022/11/16 11:52:35;;;;;;;34.50;16.13;;;;;;;;;;5054097;28;20437;-85
2022/11/16 11:55:02;;;;;;;35.60;16.80;;;;;;;;;;5035853;28;20449;-85
2022/11/16 11:57:35;;;;;;;35.50;17.67;;;;;;;;;;5053810;28;20453;-84
2022/11/16 12:00:02;;;;;;;32.40;14.40;;;;;;;;;;5054251;28;20875;-87
2022/11/16 12:02:39;;;;;;;36.13;17.53;;;;;;;;;;5036076;28;20416;-85
2022/11/16 12:05:24;;;;;;;31.63;16.07;;;;;;;;;;5053482;28;20440;-84
2022/11/16 12:08:11;;;;;;;36.57;16.63;;;;;;;;;;5036020;28;20465;-87
2022/11/16 12:10:40;;;;;;;37.10;16.60;;;;;;;;;;5053201;28;20421;-86
2022/11/16 12:13:24;;;;;;;39.17;17.40;;;;;;;;;;5053795;28;20416;-86
2022/11/16 12:15:50;;;;;;;43.10;18.07;;;;;;;;;;5054013;28;20418;-86
2022/11/16 12:18:37;;;;;;;44.23;18.50;;;;;;;;;;5053657;28;20518;-87
2022/11/16 12:21:12;;;;;;;38.13;17.43;;;;;;;;;;5053103;28;20476;-88
2022/11/16 12:23:58;;;;;;;41.27;18.20;;;;;;;;;;5053626;28;20451;-86
2022/11/16 12:26:43;;;;;;;42.17;17.77;;;;;;;;;;5052984;28;20423;-87
2022/11/16 12:29:20;;;;;;;35.00;17.93;;;;;;;;;;5053955;28;20419;-88
2022/11/16 12:31:51;;;;;;;33.63;15.60;;;;;;;;;;5053129;28;20507;-85
2022/11/16 12:34:34;;;;;;;35.20;16.83;;;;;;;;;;5052773;28;20426;-82
2022/11/16 12:37:00;;;;;;;40.57;17.27;;;;;;;;;;5053051;28;20448;-82
2022/11/16 12:39:37;;;;;;;40.03;15.80;;;;;;;;;;5052542;28;20559;-86
2022/11/16 12:42:30;;;;;;;38.93;17.03;;;;;;;;;;5018330;28;20199;-85
2022/11/16 12:45:02;;;;;;;37.07;17.30;;;;;;;;;;5017446;28;20421;-84
2022/11/16 12:47:46;;;;;;;36.43;19.33;;;;;;;;;;5033548;28;20464;-88
2022/11/16 12:50:19;;;;;;;34.17;16.80;;;;;;;;;;5033312;28;20417;-85
2022/11/16 12:52:55;;;;;;;40.67;15.77;;;;;;;;;;5033398;28;20467;-86
2022/11/16 12:55:40;;;;;;;41.90;18.40;;;;;;;;;;5043609;28;20832;-88
2022/11/16 12:58:21;;;;;;;34.97;15.07;;;;;;;;;;5053576;28;20492;-87
2022/11/16 13:00:52;;;;;;;35.23;17.27;;;;;;;;;;5054493;28;20443;-88
2022/11/16 13:03:28;;;;;;;40.97;19.17;;;;;;;;;;5053974;28;20405;-87
2022/11/16 13:06:09;;;;;;;44.53;19.93;;;;;;;;;;5060969;28;20408;-86
2022/11/16 13:08:55;;;;;;;37.40;17.70;;;;;;;;;;5069301;28;20410;-84
2022/11/16 13:11:30;;;;;;;37.70;16.43;;;;;;;;;;5070836;28;20437;-84
2022/11/16 13:14:20;;;;;;;40.97;18.40;;;;;;;;;;5075644;28;20496;-85
2022/11/16 13:16:49;;;;;;;42.67;17.83;;;;;;;;;;5126849;22;20474;-87
2022/11/16 13:19:32;;;;;;;36.67;15.77;;;;;;;;;;5116117;28;20460;-82
2022/11/16 13:22:35;;;;;;;37.60;17.17;;;;;;;;;;5080774;28;20448;-85
2022/11/16 13:25:38;;;;;;;38.37;15.10;;;;;;;;;;5110320;28;20925;-85
2022/11/16 13:28:24;;;;;;;41.27;16.00;;;;;;;;;;5114804;28;20489;-86
2022/11/16 13:31:18;;;;;;;34.07;15.87;;;;;;;;;;5107439;28;20426;-84
2022/11/16 13:39:41;;;;;;;34.30;15.57;;;;;;;;;;5295096;23;20479;-88
2022/11/16 13:42:11;;;;;;;31.17;13.93;;;;;;;;;;4985985;28;20586;-87
2022/11/16 13:44:37;;;;;;;28.77;13.53;;;;;;;;;;4984335;28;20418;-86
2022/11/16 13:47:16;;;;;;;33.20;14.07;;;;;;;;;;4976626;28;20418;-86
2022/11/16 13:49:55;;;;;;;29.53;12.37;;;;;;;;;;4956498;28;20936;-86
2022/11/16 13:52:21;;;;;;;32.03;13.80;;;;;;;;;;4974351;28;20832;-85
2022/11/16 13:54:48;;;;;;;23.33;11.13;;;;;;;;;;4974355;28;20764;-87
2022/11/16 13:57:23;;;;;;;25.83;11.63;;;;;;;;;;4981133;28;20414;-87
2022/11/16 13:59:51;;;;;;;29.13;12.83;;;;;;;;;;4993723;28;21139;-86
2022/11/16 14:02:27;;;;;;;22.67;10.67;;;;;;;;;;4964914;28;20420;-86
2022/11/16 14:04:56;;;;;;;23.33;10.70;;;;;;;;;;4973648;28;20561;-87
2022/11/16 14:07:35;;;;;;;21.97;9.90;;;;;;;;;;4959173;28;20957;-87
2022/11/16 14:10:04;;;;;;;23.87;10.97;;;;;;;;;;4991664;28;20420;-86
2022/11/16 14:12:50;;;;;;;21.60;9.80;;;;;;;;;;4989999;28;20428;-87